Time;durP1;ratioP1;P1;durP2;ratioP2;P2;SDS_P1;SDS_P2;PMS_P1;PMS_P2;Temp;Humidity;BMP_temperature;BMP_pressure;BME280_temperature;BME280_humidity;BME280_pressure;Samples;Min_cycle;Max_cycle;Signal;HPM_P1;HPM_P2
2023/05/06 00:01:18;;;;;;;63.93;22.40;;;11.80;99.90;;;;;;6153343;23;20398;-78
2023/05/06 00:03:44;;;;;;;49.03;18.10;;;11.80;99.90;;;;;;6105988;23;20430;-76
2023/05/06 00:06:10;;;;;;;46.77;17.27;;;11.90;99.90;;;;;;6125929;23;20406;-78
2023/05/06 00:08:36;;;;;;;61.10;19.90;;;11.90;99.90;;;;;;6147946;23;20421;-77
2023/05/06 00:11:02;;;;;;;55.83;19.57;;;11.90;99.90;;;;;;6147890;23;20370;-78
2023/05/06 00:13:27;;;;;;;70.80;23.93;;;11.90;99.90;;;;;;6147701;23;20195;-76
2023/05/06 00:15:53;;;;;;;70.27;22.97;;;11.90;99.90;;;;;;6146477;23;20230;-76
2023/05/06 00:18:21;;;;;;;58.67;20.77;;;11.90;99.90;;;;;;6147944;23;20136;-76
2023/05/06 00:20:46;;;;;;;90.40;30.90;;;11.90;99.90;;;;;;6123199;23;20183;-75
2023/05/06 00:23:12;;;;;;;73.17;25.67;;;11.90;99.90;;;;;;6145360;23;20469;-75
2023/05/06 00:25:38;;;;;;;67.37;25.40;;;11.80;99.90;;;;;;6143974;23;20151;-75
2023/05/06 00:28:04;;;;;;;74.70;24.40;;;11.80;99.90;;;;;;6142579;23;20410;-75
2023/05/06 00:30:30;;;;;;;61.90;20.20;;;11.80;99.90;;;;;;6107548;23;20188;-74
2023/05/06 00:32:55;;;;;;;64.20;22.27;;;11.70;99.90;;;;;;6084571;23;20157;-75
2023/05/06 00:35:21;;;;;;;57.33;22.20;;;11.70;99.90;;;;;;6108256;23;20440;-74
2023/05/06 00:37:56;;;;;;;72.00;23.50;;;11.60;99.90;;;;;;6106316;23;20184;-76
2023/05/06 00:40:22;;;;;;;70.67;24.40;;;11.60;99.90;;;;;;6107640;23;20458;-75
2023/05/06 00:42:47;;;;;;;67.17;22.73;;;11.60;99.90;;;;;;6083187;23;20377;-76
2023/05/06 00:45:13;;;;;;;67.53;22.70;;;11.60;99.90;;;;;;6110489;23;20381;-75
2023/05/06 00:47:40;;;;;;;73.47;26.67;;;11.60;99.90;;;;;;6087106;23;20145;-77
2023/05/06 00:50:08;;;;;;;91.87;27.70;;;11.50;99.90;;;;;;6110125;23;20237;-78
2023/05/06 00:52:34;;;;;;;77.00;24.93;;;11.50;99.90;;;;;;6112223;23;20411;-77
2023/05/06 00:55:00;;;;;;;60.77;19.70;;;11.50;99.90;;;;;;6110009;23;20487;-75
2023/05/06 00:57:25;;;;;;;48.10;17.83;;;11.40;99.90;;;;;;6107777;23;20361;-76
2023/05/06 00:59:51;;;;;;;36.47;14.03;;;11.40;99.90;;;;;;6108936;23;20177;-74
2023/05/06 01:02:17;;;;;;;40.03;15.07;;;11.30;99.90;;;;;;6139408;23;20155;-76
2023/05/06 01:04:44;;;;;;;28.93;12.70;;;11.30;99.90;;;;;;6168700;23;20398;-75
2023/05/06 01:07:41;;;;;;;25.33;9.60;;;11.30;99.90;;;;;;6145454;23;20162;-75
2023/05/06 01:10:34;;;;;;;20.37;8.90;;;11.30;99.90;;;;;;6149896;23;20467;-75
2023/05/06 01:13:13;;;;;;;14.43;7.00;;;11.20;99.90;;;;;;6146383;23;20514;-74
2023/05/06 01:15:48;;;;;;;16.20;7.30;;;11.30;99.90;;;;;;6122819;23;20644;-76
2023/05/06 01:18:16;;;;;;;22.80;9.00;;;11.20;99.90;;;;;;6123659;23;20374;-75
2023/05/06 01:20:46;;;;;;;20.33;8.40;;;11.20;99.90;;;;;;6145422;23;20458;-75
2023/05/06 01:23:13;;;;;;;39.80;12.83;;;11.20;99.90;;;;;;6144239;23;20379;-77
2023/05/06 01:25:40;;;;;;;30.07;10.03;;;11.20;99.90;;;;;;6169806;23;20402;-74
2023/05/06 01:28:09;;;;;;;25.37;10.07;;;11.20;99.90;;;;;;6148830;23;20721;-76
2023/05/06 01:30:56;;;;;;;20.50;8.10;;;11.20;99.90;;;;;;6176492;23;20394;-74
2023/05/06 01:33:32;;;;;;;42.17;15.03;;;11.10;99.90;;;;;;6122430;23;20390;-74
2023/05/06 01:36:13;;;;;;;54.23;18.10;;;11.10;99.90;;;;;;6141719;23;20386;-74
2023/05/06 01:38:53;;;;;;;59.63;20.00;;;11.10;99.90;;;;;;6142196;23;20362;-73
2023/05/06 01:41:21;;;;;;;58.90;22.00;;;11.10;99.90;;;;;;6119044;23;20465;-75
2023/05/06 01:43:48;;;;;;;44.33;17.87;;;11.20;99.90;;;;;;6120554;23;20371;-76
2023/05/06 01:46:17;;;;;;;56.17;18.57;;;11.20;99.90;;;;;;6142557;23;20471;-76
2023/05/06 01:48:45;;;;;;;51.33;18.40;;;11.20;99.90;;;;;;6168467;23;20374;-75
2023/05/06 01:51:10;;;;;;;33.93;12.97;;;11.20;99.90;;;;;;6118396;23;20371;-75
2023/05/06 01:53:36;;;;;;;24.37;11.17;;;11.10;99.90;;;;;;6141435;23;20409;-74
2023/05/06 01:56:02;;;;;;;16.97;9.00;;;11.10;99.90;;;;;;6140229;23;20144;-76
2023/05/06 01:58:27;;;;;;;32.53;11.73;;;11.10;99.90;;;;;;6141247;23;20135;-74
2023/05/06 02:00:53;;;;;;;30.27;13.07;;;11.00;99.90;;;;;;6140903;23;20230;-75
2023/05/06 02:03:19;;;;;;;32.67;14.07;;;11.10;99.90;;;;;;6166192;23;20155;-75
2023/05/06 02:05:44;;;;;;;56.23;18.47;;;11.10;99.90;;;;;;6166677;23;20202;-75
2023/05/06 02:08:10;;;;;;;50.10;17.17;;;11.10;99.90;;;;;;6115941;23;20417;-76
2023/05/06 02:10:35;;;;;;;91.03;29.53;;;11.10;99.90;;;;;;6163881;23;20194;-74
2023/05/06 02:13:06;;;;;;;48.80;20.33;;;11.10;99.90;;;;;;6165314;23;20207;-74
2023/05/06 02:15:34;;;;;;;46.77;17.30;;;11.10;99.90;;;;;;6141197;23;20390;-74
2023/05/06 02:18:00;;;;;;;47.00;17.70;;;11.00;99.90;;;;;;6140809;23;20405;-75
2023/05/06 02:20:26;;;;;;;39.40;13.50;;;11.00;99.90;;;;;;6140127;23;20649;-75
2023/05/06 02:22:52;;;;;;;51.90;17.00;;;11.00;99.90;;;;;;6140661;23;20367;-74
2023/05/06 02:25:18;;;;;;;45.50;17.83;;;11.00;99.90;;;;;;6140431;23;20603;-75
2023/05/06 02:27:44;;;;;;;51.20;17.73;;;11.00;99.90;;;;;;6140261;23;20146;-75
2023/05/06 02:30:11;;;;;;;50.83;20.60;;;11.00;99.90;;;;;;6166570;23;20660;-76
2023/05/06 02:32:36;;;;;;;44.60;18.20;;;11.00;99.90;;;;;;6142079;23;20132;-75
2023/05/06 02:35:02;;;;;;;42.30;16.97;;;10.90;99.90;;;;;;6166463;23;20412;-74
2023/05/06 02:37:28;;;;;;;31.00;11.87;;;10.90;99.90;;;;;;6165307;23;20522;-74
2023/05/06 02:39:53;;;;;;;40.33;15.43;;;10.90;99.90;;;;;;6142865;23;20837;-75
2023/05/06 02:42:20;;;;;;;41.33;14.93;;;10.90;99.90;;;;;;6138751;23;20576;-76
2023/05/06 02:44:46;;;;;;;40.57;16.03;;;10.80;99.90;;;;;;6116804;23;20152;-74
2023/05/06 02:47:11;;;;;;;40.60;15.33;;;10.80;99.90;;;;;;6118731;23;20383;-75
2023/05/06 02:49:37;;;;;;;35.20;13.07;;;10.80;99.90;;;;;;6166169;23;20402;-75
2023/05/06 02:52:03;;;;;;;27.53;10.90;;;10.80;99.90;;;;;;6141939;23;20258;-74
2023/05/06 02:54:29;;;;;;;26.33;9.20;;;10.80;99.90;;;;;;6167444;23;20148;-75
2023/05/06 02:56:56;;;;;;;24.67;10.03;;;10.70;99.90;;;;;;6149019;23;20370;-74
2023/05/06 02:59:22;;;;;;;24.43;9.73;;;10.70;99.90;;;;;;6143663;23;20159;-73
2023/05/06 03:01:47;;;;;;;18.50;7.77;;;10.70;99.90;;;;;;6118211;23;20406;-74
2023/05/06 03:04:13;;;;;;;17.53;7.13;;;10.70;99.90;;;;;;6143088;23;20367;-74
2023/05/06 03:06:39;;;;;;;13.80;6.87;;;10.60;99.90;;;;;;6143222;23;20214;-73
2023/05/06 03:09:04;;;;;;;23.37;10.60;;;10.60;99.90;;;;;;6170076;23;20154;-75
2023/05/06 03:11:31;;;;;;;22.40;9.93;;;10.60;99.90;;;;;;6167907;23;20234;-74
2023/05/06 03:13:59;;;;;;;20.60;8.83;;;10.60;99.90;;;;;;6143751;23;20191;-74
2023/05/06 03:16:25;;;;;;;22.93;8.37;;;10.60;99.90;;;;;;6169584;23;20411;-74
2023/05/06 03:18:54;;;;;;;29.23;12.33;;;10.50;99.90;;;;;;6146786;23;20148;-73
2023/05/06 03:21:20;;;;;;;24.20;10.70;;;10.50;99.90;;;;;;6136635;23;20418;-75
2023/05/06 03:23:48;;;;;;;16.97;7.93;;;10.50;99.90;;;;;;6135643;23;20214;-73
2023/05/06 03:26:15;;;;;;;13.90;7.87;;;10.40;99.90;;;;;;6134096;23;20517;-74
2023/05/06 03:28:43;;;;;;;15.23;6.50;;;10.40;99.90;;;;;;6132121;23;20366;-74
2023/05/06 03:31:09;;;;;;;22.23;9.77;;;10.40;99.90;;;;;;6133131;23;20594;-75
2023/05/06 03:33:35;;;;;;;35.40;15.10;;;10.40;99.90;;;;;;6157226;23;20378;-75
2023/05/06 03:36:01;;;;;;;47.53;18.40;;;10.40;99.90;;;;;;6133248;23;20231;-74
2023/05/06 03:38:26;;;;;;;61.47;20.97;;;10.40;99.90;;;;;;6132601;23;20375;-73
2023/05/06 03:40:58;;;;;;;76.63;27.40;;;10.40;99.90;;;;;;6133175;23;20171;-75
2023/05/06 03:43:24;;;;;;;74.13;27.63;;;10.40;99.90;;;;;;6165130;23;20407;-73
2023/05/06 03:45:54;;;;;;;57.43;22.20;;;10.40;99.90;;;;;;6163704;23;20430;-73
2023/05/06 03:48:20;;;;;;;62.83;24.37;;;10.40;99.90;;;;;;6165780;23;20390;-74
2023/05/06 03:50:47;;;;;;;51.53;22.00;;;10.40;99.90;;;;;;6172875;23;20395;-73
2023/05/06 03:53:13;;;;;;;53.53;22.60;;;10.40;99.90;;;;;;6162764;23;20820;-73
2023/05/06 03:55:41;;;;;;;70.70;25.80;;;10.40;99.90;;;;;;6138790;23;20474;-74
2023/05/06 03:58:10;;;;;;;64.13;22.17;;;10.40;99.90;;;;;;6138314;23;20375;-74
2023/05/06 04:00:35;;;;;;;76.07;27.97;;;10.40;99.90;;;;;;6139734;23;20427;-75
2023/05/06 04:03:01;;;;;;;65.70;26.73;;;10.40;99.90;;;;;;6164473;23;20363;-74
2023/05/06 04:05:35;;;;;;;64.97;25.03;;;10.40;99.90;;;;;;6140242;23;20143;-75
2023/05/06 04:08:00;;;;;;;74.20;27.60;;;10.40;99.90;;;;;;6140360;23;20371;-74
2023/05/06 04:10:26;;;;;;;72.83;26.97;;;10.50;99.90;;;;;;6141246;23;20401;-73
2023/05/06 04:12:56;;;;;;;67.40;24.30;;;10.50;99.90;;;;;;6140054;23;20163;-75
2023/05/06 04:15:30;;;;;;;90.63;30.87;;;10.60;99.90;;;;;;6141622;23;20379;-75
2023/05/06 04:17:56;;;;;;;71.00;24.90;;;10.60;99.90;;;;;;6145021;23;20395;-77
2023/05/06 04:20:22;;;;;;;70.77;27.60;;;10.70;99.90;;;;;;6166472;23;20437;-76
2023/05/06 04:22:48;;;;;;;65.20;25.53;;;10.70;99.90;;;;;;6167556;23;20450;-73
2023/05/06 04:25:18;;;;;;;58.00;19.93;;;10.70;99.90;;;;;;6141150;23;20156;-78
2023/05/06 04:27:45;;;;;;;42.60;15.80;;;10.70;99.90;;;;;;6166156;23;20363;-75
2023/05/06 04:30:11;;;;;;;36.17;14.37;;;10.80;99.90;;;;;;6141505;23;20482;-74
2023/05/06 04:32:38;;;;;;;44.10;15.57;;;10.80;99.90;;;;;;6145939;23;20547;-74
2023/05/06 04:35:10;;;;;;;36.50;12.43;;;10.80;99.90;;;;;;6151181;23;20379;-77
2023/05/06 04:37:40;;;;;;;46.97;18.27;;;10.80;99.90;;;;;;6179547;23;20367;-73
2023/05/06 04:40:12;;;;;;;53.10;18.47;;;10.70;99.90;;;;;;6152097;23;20457;-73
2023/05/06 04:42:40;;;;;;;42.80;16.50;;;10.80;99.90;;;;;;6149360;23;20407;-75
2023/05/06 04:45:12;;;;;;;52.77;19.10;;;10.80;99.90;;;;;;6128250;23;20363;-76
2023/05/06 04:47:41;;;;;;;36.60;14.57;;;10.80;99.90;;;;;;6168514;23;20578;-74
2023/05/06 04:50:08;;;;;;;29.60;12.60;;;10.80;99.90;;;;;;6141510;23;20402;-74
2023/05/06 04:52:35;;;;;;;28.73;11.97;;;10.80;99.90;;;;;;6145137;23;20147;-75
2023/05/06 04:55:01;;;;;;;28.37;11.10;;;10.90;99.90;;;;;;6139673;23;20399;-74
2023/05/06 04:57:30;;;;;;;19.53;7.80;;;10.90;99.90;;;;;;6138416;23;20645;-74
2023/05/06 04:59:56;;;;;;;26.93;12.53;;;11.00;99.90;;;;;;6136992;23;20449;-74
2023/05/06 05:02:21;;;;;;;19.80;8.63;;;11.00;99.90;;;;;;6139673;23;20367;-74
2023/05/06 05:04:47;;;;;;;24.33;10.87;;;10.90;99.90;;;;;;6163247;23;20226;-74
2023/05/06 05:07:14;;;;;;;34.23;13.50;;;11.00;99.90;;;;;;6163767;23;20414;-73
2023/05/06 05:09:40;;;;;;;35.20;14.70;;;11.00;99.90;;;;;;6139439;23;20410;-74
2023/05/06 05:12:06;;;;;;;30.20;13.13;;;11.00;99.90;;;;;;6139303;23;20155;-74
2023/05/06 05:14:35;;;;;;;41.37;16.13;;;11.00;99.90;;;;;;6163461;23;20454;-74
2023/05/06 05:17:01;;;;;;;38.17;14.67;;;11.10;99.90;;;;;;6137512;23;20406;-75
2023/05/06 05:19:28;;;;;;;63.97;23.53;;;11.10;99.90;;;;;;6137435;23;20288;-75
2023/05/06 05:21:54;;;;;;;87.60;27.77;;;11.10;99.90;;;;;;6163420;23;20415;-73
2023/05/06 05:24:21;;;;;;;109.67;36.00;;;11.10;99.90;;;;;;6138753;23;20413;-74
2023/05/06 05:26:47;;;;;;;100.00;33.40;;;11.20;99.90;;;;;;6162581;23;20457;-74
2023/05/06 05:29:14;;;;;;;88.17;29.83;;;11.30;99.90;;;;;;6165691;23;20167;-74
2023/05/06 05:31:42;;;;;;;87.77;33.17;;;11.30;99.90;;;;;;6165714;23;20362;-76
2023/05/06 05:34:07;;;;;;;121.10;38.23;;;11.40;99.90;;;;;;6139287;23;20379;-75
2023/05/06 05:36:33;;;;;;;146.60;40.43;;;11.50;99.90;;;;;;6139729;23;20606;-74
2023/05/06 05:39:02;;;;;;;70.13;29.53;;;11.50;99.90;;;;;;6139090;23;20167;-75
2023/05/06 05:41:30;;;;;;;72.90;25.60;;;11.40;99.90;;;;;;6138559;23;20736;-74
2023/05/06 05:43:55;;;;;;;79.27;26.53;;;11.50;99.90;;;;;;6167684;23;20355;-73
2023/05/06 05:46:22;;;;;;;42.77;17.00;;;11.60;99.90;;;;;;6163670;23;20198;-75
2023/05/06 05:48:49;;;;;;;68.50;28.83;;;11.80;99.90;;;;;;6140250;23;20695;-73
2023/05/06 05:51:16;;;;;;;51.77;23.97;;;11.90;99.90;;;;;;6115022;23;20370;-73
2023/05/06 05:53:43;;;;;;;84.27;33.20;;;11.90;99.90;;;;;;6141655;23;20394;-75
2023/05/06 05:56:08;;;;;;;68.40;26.30;;;11.80;99.90;;;;;;6140469;23;20471;-75
2023/05/06 05:58:35;;;;;;;61.47;26.03;;;11.80;99.90;;;;;;6165543;23;20150;-76
2023/05/06 06:01:02;;;;;;;52.67;23.20;;;11.80;99.90;;;;;;6141268;23;20436;-75
2023/05/06 06:03:30;;;;;;;54.07;25.93;;;11.90;99.90;;;;;;6145265;23;20498;-75
2023/05/06 06:05:56;;;;;;;99.77;34.00;;;12.00;99.90;;;;;;6176236;23;20363;-75
2023/05/06 06:08:25;;;;;;;65.13;27.20;;;12.20;99.90;;;;;;6179795;23;20132;-74
2023/05/06 06:10:51;;;;;;;64.27;29.43;;;12.60;99.90;;;;;;6127941;23;20394;-74
2023/05/06 06:13:22;;;;;;;31.43;18.67;;;12.90;99.90;;;;;;6167033;23;20458;-76
2023/05/06 06:15:48;;;;;;;47.50;27.37;;;13.10;99.90;;;;;;6142241;23;20418;-74
2023/05/06 06:18:14;;;;;;;32.67;20.00;;;12.90;99.90;;;;;;6115824;23;20135;-75
2023/05/06 06:20:40;;;;;;;32.70;18.47;;;12.90;99.90;;;;;;6138088;23;20450;-75
2023/05/06 06:23:07;;;;;;;27.70;19.70;;;12.90;99.90;;;;;;6164102;23;20363;-75
2023/05/06 06:25:33;;;;;;;31.83;20.40;;;12.90;99.90;;;;;;6141378;23;20379;-74
2023/05/06 06:27:59;;;;;;;29.70;19.27;;;12.90;99.90;;;;;;6173366;23;20402;-75
2023/05/06 06:30:25;;;;;;;35.57;23.10;;;13.00;99.90;;;;;;6147801;23;20203;-75
2023/05/06 06:32:52;;;;;;;37.30;20.63;;;13.10;99.90;;;;;;6118970;23;20155;-77
2023/05/06 06:35:22;;;;;;;28.60;19.80;;;13.20;99.90;;;;;;6142859;23;20381;-73
2023/05/06 06:37:48;;;;;;;26.03;18.60;;;13.40;99.90;;;;;;6116621;23;20665;-76
2023/05/06 06:40:14;;;;;;;27.00;20.63;;;13.40;99.90;;;;;;6164576;23;20434;-75
2023/05/06 06:42:40;;;;;;;22.07;18.57;;;13.40;99.90;;;;;;6169608;23;20128;-78
2023/05/06 06:45:16;;;;;;;22.70;17.67;;;13.60;99.90;;;;;;6143109;23;20374;-75
2023/05/06 06:47:42;;;;;;;22.03;17.57;;;13.70;99.90;;;;;;6166779;23;20373;-75
2023/05/06 06:50:08;;;;;;;21.17;17.07;;;13.60;99.90;;;;;;6140814;23;20174;-75
2023/05/06 06:52:34;;;;;;;26.00;18.17;;;13.60;99.90;;;;;;6142468;23;20223;-75
2023/05/06 06:55:01;;;;;;;19.77;17.30;;;13.60;99.90;;;;;;6141124;23;20398;-75
2023/05/06 06:57:26;;;;;;;16.23;14.63;;;13.50;99.90;;;;;;6116871;23;20370;-74
2023/05/06 06:59:53;;;;;;;15.70;13.90;;;13.70;99.90;;;;;;6169492;23;20425;-76
2023/05/06 07:02:19;;;;;;;24.10;17.60;;;13.80;99.90;;;;;;6143807;23;20494;-77
2023/05/06 07:04:45;;;;;;;21.33;18.70;;;14.00;99.90;;;;;;6168975;23;20367;-74
2023/05/06 07:07:11;;;;;;;19.70;17.60;;;14.00;99.90;;;;;;6170305;23;20355;-75
2023/05/06 07:09:38;;;;;;;18.83;14.80;;;14.00;99.90;;;;;;6167644;23;20563;-75
2023/05/06 07:12:05;;;;;;;16.73;14.27;;;13.90;99.90;;;;;;6140718;23;20148;-75
2023/05/06 07:14:31;;;;;;;21.43;17.67;;;13.70;99.90;;;;;;6167431;23;20415;-75
2023/05/06 07:16:56;;;;;;;16.90;14.10;;;13.60;99.90;;;;;;6141584;23;20374;-76
2023/05/06 07:19:22;;;;;;;21.67;15.67;;;13.60;99.90;;;;;;6164473;23;20163;-76
2023/05/06 07:21:47;;;;;;;21.60;16.10;;;13.50;99.90;;;;;;6142953;23;20195;-74
2023/05/06 07:24:13;;;;;;;16.30;14.60;;;13.60;99.90;;;;;;6144034;23;20151;-77
2023/05/06 07:26:39;;;;;;;16.83;12.53;;;13.60;99.90;;;;;;6144061;23;20144;-76
2023/05/06 07:29:05;;;;;;;14.97;12.83;;;13.60;99.90;;;;;;6168152;23;20198;-74
2023/05/06 07:31:31;;;;;;;15.07;13.37;;;13.70;99.90;;;;;;6167577;23;20579;-76
2023/05/06 07:33:57;;;;;;;15.43;12.40;;;13.80;99.90;;;;;;6120353;23;20240;-76
2023/05/06 07:36:23;;;;;;;17.30;12.33;;;14.00;99.90;;;;;;6147755;23;20369;-75
2023/05/06 07:38:49;;;;;;;12.77;10.73;;;14.20;99.90;;;;;;6145946;23;20584;-76
2023/05/06 07:41:15;;;;;;;12.40;10.50;;;14.40;99.90;;;;;;6118827;23;20422;-78
2023/05/06 07:43:41;;;;;;;14.37;12.87;;;14.60;99.90;;;;;;6143254;23;20125;-77
2023/05/06 07:46:07;;;;;;;17.60;12.90;;;14.70;99.90;;;;;;6167597;23;20213;-76
2023/05/06 07:48:32;;;;;;;12.00;10.80;;;14.90;99.90;;;;;;6166975;23;20414;-75
2023/05/06 07:50:59;;;;;;;13.43;12.03;;;15.00;99.90;;;;;;6168434;23;20319;-74
2023/05/06 07:53:25;;;;;;;11.50;10.30;;;15.00;99.90;;;;;;6169295;23;20228;-76
2023/05/06 07:55:51;;;;;;;13.67;11.87;;;15.20;99.90;;;;;;6142426;23;20378;-76
2023/05/06 07:58:18;;;;;;;12.03;10.83;;;15.40;99.90;;;;;;6169732;23;20370;-75
2023/05/06 08:00:43;;;;;;;10.97;9.77;;;15.50;99.90;;;;;;6169690;23;20483;-75
2023/05/06 08:03:09;;;;;;;9.43;8.43;;;15.50;99.90;;;;;;6168730;23;20485;-76
2023/05/06 08:05:35;;;;;;;12.63;11.30;;;15.60;99.90;;;;;;6079449;23;20145;-77
2023/05/06 08:08:00;;;;;;;11.37;10.23;;;15.90;99.90;;;;;;6055775;23;20531;-75
2023/05/06 08:10:26;;;;;;;7.50;6.80;;;15.90;99.90;;;;;;6080381;23;20169;-75
2023/05/06 08:12:52;;;;;;;7.90;7.20;;;16.00;99.90;;;;;;6080561;23;20142;-76
2023/05/06 08:15:18;;;;;;;6.30;5.70;;;16.20;99.90;;;;;;6085975;23;20154;-77
2023/05/06 08:17:44;;;;;;;6.87;4.63;;;16.40;99.90;;;;;;6057616;23;20161;-75
2023/05/06 08:20:13;;;;;;;7.50;6.70;;;16.50;99.90;;;;;;6080475;23;20425;-76
2023/05/06 08:22:38;;;;;;;8.10;6.70;;;16.60;99.90;;;;;;6088933;23;20442;-77
2023/05/06 08:25:05;;;;;;;8.47;5.87;;;16.80;99.90;;;;;;6066993;23;20365;-77
2023/05/06 08:27:31;;;;;;;11.00;4.80;;;17.00;99.90;;;;;;6061882;23;20141;-78
2023/05/06 08:29:57;;;;;;;4.00;3.50;;;17.10;99.90;;;;;;6085103;23;20675;-77
2023/05/06 08:32:22;;;;;;;7.27;4.80;;;17.20;99.90;;;;;;6083604;23;20366;-78
2023/05/06 08:34:48;;;;;;;6.03;4.53;;;17.10;99.90;;;;;;6060683;23;20149;-77
2023/05/06 08:37:14;;;;;;;4.63;3.97;;;17.10;99.90;;;;;;6134080;23;20212;-79
2023/05/06 08:39:39;;;;;;;6.70;3.90;;;17.20;99.90;;;;;;6170076;23;20227;-76
2023/05/06 08:42:09;;;;;;;3.57;3.27;;;17.30;99.90;;;;;;6149536;23;20177;-76
2023/05/06 08:44:35;;;;;;;4.20;3.80;;;17.40;99.90;;;;;;6149778;23;20374;-77
2023/05/06 08:47:01;;;;;;;4.33;3.23;;;17.60;99.90;;;;;;6149820;23;20374;-77
2023/05/06 08:49:27;;;;;;;3.30;3.00;;;17.60;99.90;;;;;;6173959;23;20403;-78
2023/05/06 08:51:56;;;;;;;5.10;3.77;;;17.60;99.90;;;;;;6099850;23;20159;-77
2023/05/06 08:54:26;;;;;;;4.27;3.60;;;17.70;99.90;;;;;;6126131;23;20424;-78
2023/05/06 08:56:53;;;;;;;5.37;3.97;;;17.70;99.90;;;;;;6149538;23;20379;-79
2023/05/06 08:59:25;;;;;;;4.60;3.80;;;17.90;99.90;;;;;;6123893;23;20402;-77
2023/05/06 09:01:52;;;;;;;4.47;3.93;;;18.00;99.90;;;;;;6170969;23;20410;-76
2023/05/06 09:04:18;;;;;;;6.67;3.20;;;18.10;99.90;;;;;;6119729;23;20866;-76
2023/05/06 09:06:45;;;;;;;3.50;3.03;;;18.10;99.90;;;;;;6119868;23;20375;-76
2023/05/06 09:09:11;;;;;;;3.40;3.10;;;18.20;99.90;;;;;;6121213;23;20547;-76
2023/05/06 09:11:43;;;;;;;4.60;4.20;;;18.30;99.90;;;;;;6172431;23;20374;-74
2023/05/06 09:14:15;;;;;;;4.00;3.70;;;18.30;99.90;;;;;;6126065;23;20513;-77
2023/05/06 09:16:45;;;;;;;4.13;3.50;;;18.30;99.90;;;;;;6126089;23;20375;-74
2023/05/06 09:19:12;;;;;;;3.53;3.23;;;18.40;99.90;;;;;;6149685;23;20417;-75
2023/05/06 09:21:43;;;;;;;3.83;3.53;;;18.40;99.90;;;;;;6180837;23;20438;-79
2023/05/06 09:24:10;;;;;;;3.67;3.37;;;18.40;99.90;;;;;;6152672;23;20391;-79
2023/05/06 09:26:38;;;;;;;5.47;3.20;;;18.40;99.90;;;;;;6128159;23;20374;-78
2023/05/06 09:29:07;;;;;;;3.23;2.77;;;18.40;99.90;;;;;;6129295;23;20392;-78
2023/05/06 09:31:39;;;;;;;3.37;2.60;;;18.50;99.90;;;;;;6113071;23;20798;-77
2023/05/06 09:34:06;;;;;;;6.23;2.20;;;18.60;99.90;;;;;;6111457;23;20385;-77
2023/05/06 09:36:32;;;;;;;3.20;2.70;;;18.70;99.90;;;;;;6111069;23;20389;-78
2023/05/06 09:38:58;;;;;;;2.57;2.37;;;18.80;99.90;;;;;;6110556;23;20416;-76
2023/05/06 09:41:24;;;;;;;4.80;2.60;;;18.90;99.90;;;;;;6110953;23;20422;-77
2023/05/06 09:43:53;;;;;;;3.00;2.70;;;19.00;99.90;;;;;;6088632;23;20133;-76
2023/05/06 09:46:23;;;;;;;3.47;3.07;;;19.10;99.90;;;;;;6085882;23;20387;-77
2023/05/06 09:48:50;;;;;;;4.13;3.23;;;19.10;99.90;;;;;;6113265;23;20721;-76
2023/05/06 09:51:16;;;;;;;3.20;2.90;;;19.30;99.90;;;;;;6113740;23;20406;-80
2023/05/06 09:53:44;;;;;;;2.60;2.40;;;19.50;99.90;;;;;;6112763;23;20425;-79
2023/05/06 09:56:12;;;;;;;3.57;2.83;;;19.60;99.90;;;;;;6111278;23;20371;-77
2023/05/06 09:58:38;;;;;;;4.30;3.20;;;19.80;91.50;;;;;;6083729;23;20496;-77
2023/05/06 10:01:05;;;;;;;4.63;2.77;;;19.90;99.90;;;;;;6064955;23;20461;-78
2023/05/06 10:03:33;;;;;;;3.13;2.53;;;20.20;97.40;;;;;;6113988;23;20379;-77
2023/05/06 10:06:01;;;;;;;4.67;2.70;;;20.30;86.20;;;;;;6118141;23;20403;-79
2023/05/06 10:08:27;;;;;;;4.07;2.90;;;20.30;88.80;;;;;;6095854;23;20389;-76
2023/05/06 10:10:54;;;;;;;3.00;2.70;;;20.50;90.00;;;;;;6120027;23;20411;-79
2023/05/06 10:13:23;;;;;;;2.53;2.33;;;20.50;81.50;;;;;;6118355;23;20412;-78
2023/05/06 10:15:50;;;;;;;3.83;2.70;;;20.50;87.40;;;;;;6094048;23;20414;-77
2023/05/06 10:18:20;;;;;;;2.70;2.00;;;20.70;87.90;;;;;;6098101;23;20376;-78
2023/05/06 10:20:47;;;;;;;3.40;1.90;;;20.80;74.90;;;;;;6124332;23;20467;-80
2023/05/06 10:23:24;;;;;;;3.30;2.80;;;20.90;80.70;;;;;;6121410;23;20364;-79
2023/05/06 10:25:54;;;;;;;3.57;2.53;;;21.00;75.90;;;;;;6095240;23;20391;-77
2023/05/06 10:28:21;;;;;;;3.50;2.10;;;21.20;77.10;;;;;;6117195;23;20363;-76
2023/05/06 10:30:47;;;;;;;3.90;2.40;;;21.20;62.10;;;;;;6145334;23;20574;-76
2023/05/06 10:33:15;;;;;;;3.70;2.00;;;21.30;67.90;;;;;;6147378;23;20382;-78
2023/05/06 10:35:40;;;;;;;3.43;2.20;;;21.40;68.40;;;;;;6124173;23;20378;-76
2023/05/06 10:38:22;;;;;;;2.17;1.90;;;21.70;60.50;;;;;;6176783;23;20367;-77
2023/05/06 10:40:48;;;;;;;3.63;1.80;;;21.70;62.30;;;;;;6177213;23;20170;-78
2023/05/06 10:43:32;;;;;;;3.67;1.90;;;21.80;62.30;;;;;;6150436;23;20378;-80
2023/05/06 10:46:02;;;;;;;2.33;1.63;;;21.80;58.70;;;;;;6175658;23;20461;-79
2023/05/06 10:48:30;;;;;;;3.80;2.20;;;21.90;59.70;;;;;;6148167;23;20375;-77
2023/05/06 10:51:14;;;;;;;2.00;1.60;;;21.90;58.00;;;;;;6123336;23;20402;-77
2023/05/06 10:53:59;;;;;;;2.47;2.07;;;21.90;58.90;;;;;;6153348;23;20398;-80
2023/05/06 10:56:25;;;;;;;8.70;2.40;;;22.20;57.20;;;;;;6149702;23;20359;-79
2023/05/06 10:58:54;;;;;;;3.50;2.63;;;22.30;56.40;;;;;;6173403;23;20371;-79
2023/05/06 11:01:27;;;;;;;3.50;1.60;;;22.50;55.70;;;;;;6147173;23;20430;-77
2023/05/06 11:03:53;;;;;;;5.20;2.50;;;22.50;56.50;;;;;;6150380;23;20374;-78
2023/05/06 11:06:34;;;;;;;3.63;2.03;;;22.20;54.40;;;;;;6126376;23;20394;-77
2023/05/06 11:09:00;;;;;;;2.23;1.70;;;22.10;55.90;;;;;;6126761;23;20394;-77
2023/05/06 11:11:47;;;;;;;3.50;1.77;;;22.40;57.50;;;;;;6151723;23;20382;-78
2023/05/06 11:14:14;;;;;;;3.10;1.87;;;22.80;57.20;;;;;;6129252;23;20422;-79
2023/05/06 11:16:52;;;;;;;1.77;1.33;;;23.00;55.40;;;;;;6181774;23;20621;-79
2023/05/06 11:19:26;;;;;;;2.10;1.53;;;23.20;55.40;;;;;;6129908;23;20421;-79
2023/05/06 11:21:53;;;;;;;2.57;1.60;;;23.30;54.00;;;;;;6128946;23;20486;-80
2023/05/06 11:24:40;;;;;;;1.47;1.20;;;23.50;55.10;;;;;;6150572;23;20405;-79
2023/05/06 11:27:08;;;;;;;2.50;1.70;;;23.60;53.50;;;;;;6149373;23;20363;-79
2023/05/06 11:29:34;;;;;;;6.67;2.30;;;23.90;53.80;;;;;;6149804;23;20402;-79
2023/05/06 11:32:00;;;;;;;2.43;1.50;;;24.00;51.40;;;;;;6127000;23;20474;-76
2023/05/06 11:34:30;;;;;;;2.37;1.50;;;24.10;52.30;;;;;;6176871;23;20379;-78
2023/05/06 11:37:02;;;;;;;2.13;1.43;;;24.20;51.50;;;;;;6152848;23;20199;-79
2023/05/06 11:39:30;;;;;;;2.07;1.73;;;24.20;51.00;;;;;;6129433;23;20417;-79
2023/05/06 11:42:02;;;;;;;2.87;1.63;;;24.20;50.50;;;;;;6154619;23;20482;-80
2023/05/06 11:44:46;;;;;;;2.80;2.10;;;24.10;50.00;;;;;;6128343;23;20374;-78
2023/05/06 11:47:12;;;;;;;3.43;1.87;;;23.80;49.10;;;;;;6132832;23;20401;-80
2023/05/06 11:49:40;;;;;;;2.93;1.50;;;23.50;49.80;;;;;;6132866;23;20430;-80
2023/05/06 11:52:11;;;;;;;4.33;2.07;;;23.30;50.50;;;;;;6133521;23;20190;-78
2023/05/06 11:54:41;;;;;;;6.83;4.37;;;23.20;50.30;;;;;;6154743;23;20351;-80
2023/05/06 11:57:08;;;;;;;5.90;3.50;;;22.90;50.10;;;;;;6091386;23;20431;-79
2023/05/06 11:59:36;;;;;;;2.60;1.67;;;22.80;50.30;;;;;;6041437;23;20730;-79
2023/05/06 12:02:07;;;;;;;3.00;1.83;;;22.70;50.00;;;;;;6066615;23;20492;-79
2023/05/06 12:04:48;;;;;;;2.10;1.30;;;22.80;50.30;;;;;;6065835;23;20456;-79
2023/05/06 12:07:15;;;;;;;3.33;2.10;;;23.00;50.80;;;;;;6043455;23;20380;-79
2023/05/06 12:09:47;;;;;;;1.80;1.40;;;22.90;49.80;;;;;;6040862;23;20401;-77
2023/05/06 12:12:18;;;;;;;2.63;2.17;;;23.00;50.50;;;;;;6043234;23;20397;-81
2023/05/06 12:14:45;;;;;;;2.90;1.40;;;23.20;50.50;;;;;;6067060;23;20438;-79
2023/05/06 12:17:12;;;;;;;4.73;2.00;;;23.40;50.50;;;;;;6044056;23;20377;-79
2023/05/06 12:19:38;;;;;;;3.87;2.07;;;23.50;50.10;;;;;;6044556;23;20393;-79
2023/05/06 12:22:20;;;;;;;2.17;1.50;;;23.60;49.10;;;;;;6088040;23;20435;-79
2023/05/06 12:24:47;;;;;;;2.80;1.20;;;23.80;49.20;;;;;;6040242;23;20148;-77
2023/05/06 12:27:13;;;;;;;1.97;1.20;;;23.90;48.50;;;;;;6105117;23;20359;-79
2023/05/06 12:29:39;;;;;;;2.07;1.20;;;23.90;48.50;;;;;;6153785;23;20409;-78
2023/05/06 12:32:10;;;;;;;1.87;1.63;;;23.90;48.30;;;;;;6153329;23;20355;-79
2023/05/06 12:34:37;;;;;;;2.17;1.47;;;23.80;47.70;;;;;;6129199;23;20391;-79
2023/05/06 12:37:04;;;;;;;3.63;2.43;;;23.70;48.10;;;;;;6127667;23;20374;-77
2023/05/06 12:39:37;;;;;;;2.90;1.70;;;23.90;48.20;;;;;;6127499;23;20469;-79